FFT104 KATL-KPHL
Flight info
| Callsign | FFT104 |
|---|---|
| Flight time | 1h 32m |
| Altitude | 35000 |
| Route | PLMMR3 BURGG Q22 BEARI BBDOL PAATS4 |
| Aircraft | A321/M-VGDW/C |
Departure
| Time | 2026-05-06 16:14 |
|---|---|
| Airport | Hartsfield Jackson Atlanta International Airport (KATL) |
Arrival
| Time | 2026-05-06 17:47 |
|---|---|
| Airport | Philadelphia International Airport (KPHL) |
| Time | Latitude | Longitude | Altitude | Speed | Heading |
|---|---|---|---|---|---|
| 2026-05-06 15:35 | 33.64113 | -84.44180 | 1007 ft | 0 kts | 281° |
| 2026-05-06 15:59 | 33.64110 | -84.44161 | 1006 ft | 4 kts | 274° |
| 2026-05-06 15:59 | 33.64113 | -84.44131 | 1000 ft | 4 kts | 240° |
| 2026-05-06 16:00 | 33.64128 | -84.44115 | 1006 ft | 2 kts | 180° |
| 2026-05-06 16:00 | 33.64129 | -84.44115 | 1006 ft | 0 kts | 180° |
| 2026-05-06 16:03 | 33.64128 | -84.44115 | 1006 ft | 2 kts | 180° |
| 2026-05-06 16:03 | 33.64073 | -84.44115 | 1006 ft | 12 kts | 180° |
| 2026-05-06 16:04 | 33.63994 | -84.44114 | 1006 ft | 11 kts | 180° |
| 2026-05-06 16:04 | 33.63922 | -84.44115 | 1006 ft | 10 kts | 180° |
| 2026-05-06 16:04 | 33.63860 | -84.44115 | 1006 ft | 8 kts | 180° |
| 2026-05-06 16:04 | 33.63806 | -84.44115 | 1006 ft | 7 kts | 180° |
| 2026-05-06 16:05 | 33.63763 | -84.44115 | 1006 ft | 0 kts | 180° |
| 2026-05-06 16:06 | 33.63762 | -84.44115 | 1006 ft | 1 kts | 180° |
| 2026-05-06 16:06 | 33.63710 | -84.44114 | 1006 ft | 13 kts | 172° |
| 2026-05-06 16:06 | 33.63648 | -84.44076 | 1007 ft | 9 kts | 147° |
| 2026-05-06 16:07 | 33.63600 | -84.44036 | 1007 ft | 10 kts | 137° |
| 2026-05-06 16:07 | 33.63581 | -84.43957 | 1007 ft | 11 kts | 90° |
| 2026-05-06 16:07 | 33.63581 | -84.43825 | 1006 ft | 20 kts | 90° |
| 2026-05-06 16:07 | 33.63582 | -84.43661 | 1006 ft | 18 kts | 90° |
| 2026-05-06 16:08 | 33.63582 | -84.43516 | 1006 ft | 17 kts | 90° |
| 2026-05-06 16:08 | 33.63582 | -84.43386 | 1005 ft | 15 kts | 90° |
| 2026-05-06 16:08 | 33.63582 | -84.43253 | 1005 ft | 19 kts | 90° |
| 2026-05-06 16:08 | 33.63582 | -84.43078 | 1006 ft | 20 kts | 90° |
| 2026-05-06 16:09 | 33.63582 | -84.42913 | 1006 ft | 19 kts | 90° |
| 2026-05-06 16:09 | 33.63582 | -84.42768 | 1006 ft | 16 kts | 90° |
| 2026-05-06 16:09 | 33.63582 | -84.42612 | 1007 ft | 23 kts | 90° |
| 2026-05-06 16:09 | 33.63582 | -84.42422 | 1007 ft | 22 kts | 90° |
| 2026-05-06 16:10 | 33.63582 | -84.42252 | 1007 ft | 19 kts | 90° |
| 2026-05-06 16:10 | 33.63582 | -84.42098 | 1007 ft | 18 kts | 90° |
| 2026-05-06 16:10 | 33.63582 | -84.41951 | 1006 ft | 20 kts | 90° |
| 2026-05-06 16:10 | 33.63582 | -84.41786 | 1006 ft | 19 kts | 90° |
| 2026-05-06 16:11 | 33.63581 | -84.41636 | 1006 ft | 17 kts | 90° |
| 2026-05-06 16:11 | 33.63581 | -84.41459 | 1005 ft | 23 kts | 90° |
| 2026-05-06 16:11 | 33.63581 | -84.41274 | 1006 ft | 21 kts | 89° |
| 2026-05-06 16:11 | 33.63581 | -84.41106 | 1006 ft | 19 kts | 90° |
| 2026-05-06 16:12 | 33.63581 | -84.40977 | 1006 ft | 9 kts | 91° |
| 2026-05-06 16:12 | 33.63560 | -84.40921 | 1006 ft | 6 kts | 142° |
| 2026-05-06 16:12 | 33.63515 | -84.40912 | 1007 ft | 9 kts | 182° |
| 2026-05-06 16:12 | 33.63476 | -84.40929 | 1007 ft | 5 kts | 234° |
| 2026-05-06 16:13 | 33.63472 | -84.40968 | 1007 ft | 5 kts | 268° |
| 2026-05-06 16:13 | 33.63471 | -84.41155 | 1005 ft | 53 kts | 270° |
| 2026-05-06 16:13 | 33.63469 | -84.41845 | 1007 ft | 110 kts | 269° |
| 2026-05-06 16:13 | 33.63471 | -84.42960 | 1007 ft | 153 kts | 270° |
| 2026-05-06 16:14 | 33.63469 | -84.44370 | 1100 ft | 179 kts | 268° |
| 2026-05-06 16:14 | 33.63484 | -84.45827 | 1753 ft | 173 kts | 269° |
| 2026-05-06 16:14 | 33.63446 | -84.47292 | 2286 ft | 177 kts | 258° |
| 2026-05-06 16:14 | 33.62940 | -84.48629 | 2761 ft | 183 kts | 238° |
| 2026-05-06 16:15 | 33.62254 | -84.50028 | 2830 ft | 205 kts | 241° |
| 2026-05-06 16:15 | 33.61562 | -84.51631 | 2904 ft | 231 kts | 243° |
| 2026-05-06 16:15 | 33.60830 | -84.53435 | 3359 ft | 244 kts | 244° |
| 2026-05-06 16:15 | 33.60090 | -84.55287 | 4045 ft | 248 kts | 244° |
| 2026-05-06 16:16 | 33.59299 | -84.57131 | 4793 ft | 250 kts | 238° |
| 2026-05-06 16:16 | 33.57935 | -84.58445 | 5474 ft | 262 kts | 204° |
| 2026-05-06 16:16 | 33.56118 | -84.58878 | 6239 ft | 273 kts | 190° |
| 2026-05-06 16:16 | 33.54191 | -84.58901 | 7332 ft | 280 kts | 184° |
| 2026-05-06 16:17 | 33.52210 | -84.58788 | 8444 ft | 281 kts | 183° |
| 2026-05-06 16:17 | 33.50250 | -84.58655 | 9411 ft | 283 kts | 184° |
| 2026-05-06 16:17 | 33.48285 | -84.58260 | 10258 ft | 297 kts | 165° |
| 2026-05-06 16:17 | 33.46561 | -84.56762 | 10933 ft | 322 kts | 134° |
| 2026-05-06 16:18 | 33.45565 | -84.54295 | 11534 ft | 344 kts | 108° |
| 2026-05-06 16:18 | 33.45182 | -84.51403 | 11718 ft | 370 kts | 96° |
| 2026-05-06 16:18 | 33.45132 | -84.48187 | 11854 ft | 392 kts | 90° |
| 2026-05-06 16:18 | 33.45263 | -84.44868 | 12073 ft | 404 kts | 87° |
| 2026-05-06 16:19 | 33.45439 | -84.41482 | 12514 ft | 410 kts | 87° |
| 2026-05-06 16:19 | 33.45796 | -84.38080 | 12955 ft | 415 kts | 77° |
| 2026-05-06 16:19 | 33.46616 | -84.34764 | 13521 ft | 417 kts | 67° |
| 2026-05-06 16:19 | 33.47870 | -84.31628 | 14019 ft | 418 kts | 56° |
| 2026-05-06 16:20 | 33.49571 | -84.28813 | 14451 ft | 416 kts | 43° |
| 2026-05-06 16:20 | 33.51597 | -84.26287 | 14943 ft | 416 kts | 40° |
| 2026-05-06 16:20 | 33.53628 | -84.23809 | 15430 ft | 418 kts | 39° |
| 2026-05-06 16:20 | 33.55647 | -84.21361 | 15942 ft | 420 kts | 39° |
| 2026-05-06 16:21 | 33.57722 | -84.18851 | 16382 ft | 424 kts | 39° |
| 2026-05-06 16:21 | 33.59824 | -84.16295 | 16854 ft | 427 kts | 38° |
| 2026-05-06 16:21 | 33.61882 | -84.13782 | 17317 ft | 429 kts | 38° |
| 2026-05-06 16:21 | 33.64004 | -84.11188 | 17808 ft | 431 kts | 38° |
| 2026-05-06 16:22 | 33.66111 | -84.08608 | 18290 ft | 434 kts | 38° |
| 2026-05-06 16:22 | 33.68230 | -84.06011 | 18706 ft | 436 kts | 38° |
| 2026-05-06 16:22 | 33.70352 | -84.03405 | 19117 ft | 437 kts | 38° |
| 2026-05-06 16:22 | 33.72455 | -84.00824 | 19517 ft | 439 kts | 38° |
| 2026-05-06 16:23 | 33.74596 | -83.98193 | 19938 ft | 441 kts | 38° |
| 2026-05-06 16:23 | 33.76746 | -83.95552 | 20355 ft | 443 kts | 38° |
| 2026-05-06 16:23 | 33.78903 | -83.92907 | 20752 ft | 445 kts | 38° |
| 2026-05-06 16:23 | 33.81074 | -83.90242 | 21171 ft | 446 kts | 38° |
| 2026-05-06 16:24 | 33.83241 | -83.87569 | 21580 ft | 447 kts | 38° |
| 2026-05-06 16:24 | 33.85415 | -83.84888 | 21943 ft | 449 kts | 38° |
| 2026-05-06 16:24 | 33.87608 | -83.82188 | 22299 ft | 451 kts | 38° |
| 2026-05-06 16:24 | 33.89812 | -83.79476 | 22660 ft | 454 kts | 38° |
| 2026-05-06 16:25 | 33.92021 | -83.76754 | 22995 ft | 456 kts | 38° |
| 2026-05-06 16:25 | 33.94242 | -83.74011 | 23329 ft | 459 kts | 39° |
| 2026-05-06 16:25 | 33.96324 | -83.71049 | 23642 ft | 468 kts | 47° |
| 2026-05-06 16:25 | 33.98263 | -83.67883 | 23934 ft | 471 kts | 47° |
| 2026-05-06 16:26 | 34.00208 | -83.64702 | 24224 ft | 472 kts | 47° |
| 2026-05-06 16:26 | 34.02162 | -83.61512 | 24506 ft | 474 kts | 47° |
| 2026-05-06 16:26 | 34.04124 | -83.58312 | 24788 ft | 476 kts | 47° |
| 2026-05-06 16:26 | 34.06096 | -83.55096 | 25035 ft | 479 kts | 47° |
| 2026-05-06 16:27 | 34.08083 | -83.51860 | 25285 ft | 481 kts | 48° |
| 2026-05-06 16:27 | 34.10071 | -83.48621 | 25660 ft | 480 kts | 49° |
| 2026-05-06 16:27 | 34.12060 | -83.45373 | 25966 ft | 481 kts | 48° |
| 2026-05-06 16:27 | 34.14075 | -83.42074 | 26232 ft | 483 kts | 49° |
| 2026-05-06 16:28 | 34.16071 | -83.38797 | 26537 ft | 485 kts | 49° |
| 2026-05-06 16:28 | 34.18074 | -83.35505 | 26838 ft | 487 kts | 49° |
| 2026-05-06 16:28 | 34.20085 | -83.32199 | 27119 ft | 489 kts | 49° |
| 2026-05-06 16:28 | 34.22104 | -83.28877 | 27372 ft | 491 kts | 49° |
| 2026-05-06 16:29 | 34.24131 | -83.25546 | 27624 ft | 493 kts | 49° |
| 2026-05-06 16:29 | 34.26169 | -83.22199 | 27864 ft | 495 kts | 49° |
| 2026-05-06 16:29 | 34.28206 | -83.18849 | 28092 ft | 496 kts | 49° |
| 2026-05-06 16:29 | 34.29590 | -83.16569 | 28244 ft | 498 kts | 49° |
| 2026-05-06 16:30 | 34.31645 | -83.13185 | 28439 ft | 501 kts | 49° |
| 2026-05-06 16:30 | 34.33015 | -83.10934 | 28604 ft | 501 kts | 49° |
| 2026-05-06 16:30 | 34.35823 | -83.06335 | 28907 ft | 504 kts | 49° |
| 2026-05-06 16:30 | 34.37910 | -83.02925 | 29133 ft | 505 kts | 49° |
| 2026-05-06 16:31 | 34.39985 | -82.99539 | 29351 ft | 507 kts | 49° |
| 2026-05-06 16:31 | 34.42112 | -82.96060 | 29576 ft | 509 kts | 49° |
| 2026-05-06 16:31 | 34.44218 | -82.92611 | 29808 ft | 510 kts | 49° |
| 2026-05-06 16:31 | 34.46324 | -82.89156 | 30174 ft | 509 kts | 49° |
| 2026-05-06 16:32 | 34.48456 | -82.85652 | 30443 ft | 509 kts | 49° |
| 2026-05-06 16:32 | 34.50552 | -82.82202 | 30708 ft | 509 kts | 49° |
| 2026-05-06 16:32 | 34.52647 | -82.78746 | 30985 ft | 508 kts | 49° |
| 2026-05-06 16:32 | 34.54744 | -82.75285 | 31201 ft | 509 kts | 50° |
| 2026-05-06 16:33 | 34.56840 | -82.71823 | 31476 ft | 509 kts | 49° |
| 2026-05-06 16:33 | 34.58933 | -82.68370 | 31731 ft | 508 kts | 49° |
| 2026-05-06 16:33 | 34.61030 | -82.64916 | 31966 ft | 508 kts | 49° |
| 2026-05-06 16:34 | 34.65221 | -82.57995 | 32452 ft | 509 kts | 49° |
| 2026-05-06 16:34 | 34.67311 | -82.54528 | 32683 ft | 509 kts | 49° |
| 2026-05-06 16:34 | 34.69385 | -82.51041 | 32930 ft | 509 kts | 50° |
| 2026-05-06 16:34 | 34.71441 | -82.47535 | 33199 ft | 510 kts | 50° |
| 2026-05-06 16:35 | 34.73488 | -82.44017 | 33439 ft | 510 kts | 50° |
| 2026-05-06 16:35 | 34.75557 | -82.40457 | 33711 ft | 510 kts | 50° |
| 2026-05-06 16:35 | 34.77609 | -82.36934 | 33890 ft | 511 kts | 49° |
| 2026-05-06 16:35 | 34.79670 | -82.33401 | 34079 ft | 512 kts | 49° |
| 2026-05-06 16:36 | 34.81733 | -82.29866 | 34272 ft | 512 kts | 49° |
| 2026-05-06 16:36 | 34.83797 | -82.26330 | 34467 ft | 512 kts | 49° |
| 2026-05-06 16:36 | 34.85862 | -82.22793 | 34661 ft | 513 kts | 48° |
| 2026-05-06 16:36 | 34.87924 | -82.19259 | 34856 ft | 513 kts | 48° |
| 2026-05-06 16:37 | 34.89990 | -82.15719 | 35022 ft | 513 kts | 48° |
| 2026-05-06 16:37 | 34.94112 | -82.08652 | 35068 ft | 511 kts | 48° |
| 2026-05-06 16:38 | 34.98213 | -82.01588 | 35072 ft | 510 kts | 48° |
| 2026-05-06 16:38 | 35.02305 | -81.94508 | 35067 ft | 511 kts | 48° |
| 2026-05-06 16:39 | 35.06460 | -81.87483 | 35051 ft | 510 kts | 46° |
| 2026-05-06 16:39 | 35.10767 | -81.80626 | 35030 ft | 509 kts | 45° |
| 2026-05-06 16:40 | 35.15100 | -81.73775 | 35011 ft | 510 kts | 46° |
| 2026-05-06 16:40 | 35.19379 | -81.66868 | 35083 ft | 510 kts | 46° |
| 2026-05-06 16:41 | 35.23657 | -81.59894 | 35100 ft | 510 kts | 46° |
| 2026-05-06 16:41 | 35.27928 | -81.52934 | 34999 ft | 511 kts | 46° |
| 2026-05-06 16:42 | 35.32230 | -81.45942 | 35002 ft | 511 kts | 46° |
| 2026-05-06 16:42 | 35.36499 | -81.38985 | 35013 ft | 511 kts | 46° |
| 2026-05-06 16:43 | 35.40759 | -81.32015 | 35033 ft | 511 kts | 46° |
| 2026-05-06 16:43 | 35.45019 | -81.25034 | 35069 ft | 511 kts | 46° |
| 2026-05-06 16:44 | 35.49278 | -81.18048 | 35059 ft | 511 kts | 46° |
| 2026-05-06 16:44 | 35.53533 | -81.11058 | 35052 ft | 511 kts | 46° |
| 2026-05-06 16:45 | 35.57784 | -81.04058 | 35040 ft | 511 kts | 46° |
| 2026-05-06 16:45 | 35.62033 | -80.97043 | 35043 ft | 512 kts | 46° |
| 2026-05-06 16:46 | 35.66277 | -80.90015 | 35070 ft | 512 kts | 46° |
| 2026-05-06 16:46 | 35.70518 | -80.82989 | 35073 ft | 511 kts | 47° |
| 2026-05-06 16:47 | 35.74746 | -80.75969 | 35059 ft | 510 kts | 47° |
| 2026-05-06 16:47 | 35.78985 | -80.68897 | 35036 ft | 509 kts | 47° |
| 2026-05-06 16:48 | 35.83189 | -80.61877 | 35023 ft | 509 kts | 47° |
| 2026-05-06 16:48 | 35.87395 | -80.54854 | 35005 ft | 509 kts | 47° |
| 2026-05-06 16:49 | 35.91570 | -80.47865 | 34970 ft | 510 kts | 46° |
| 2026-05-06 16:49 | 35.95775 | -80.40807 | 34965 ft | 511 kts | 46° |
| 2026-05-06 16:50 | 35.99988 | -80.33726 | 34962 ft | 512 kts | 46° |
| 2026-05-06 16:50 | 36.04213 | -80.26630 | 34962 ft | 512 kts | 46° |
| 2026-05-06 16:51 | 36.08431 | -80.19547 | 34958 ft | 512 kts | 46° |
| 2026-05-06 16:51 | 36.12653 | -80.12438 | 34997 ft | 513 kts | 46° |
| 2026-05-06 16:52 | 36.16864 | -80.05309 | 35033 ft | 513 kts | 46° |
| 2026-05-06 16:52 | 36.21078 | -79.98165 | 35028 ft | 514 kts | 46° |
| 2026-05-06 16:53 | 36.25325 | -79.90974 | 35021 ft | 514 kts | 46° |
| 2026-05-06 16:53 | 36.29540 | -79.83813 | 35026 ft | 514 kts | 46° |
| 2026-05-06 16:54 | 36.33747 | -79.76637 | 35043 ft | 515 kts | 46° |
| 2026-05-06 16:54 | 36.37958 | -79.69446 | 35032 ft | 515 kts | 46° |
| 2026-05-06 16:55 | 36.42165 | -79.62248 | 34970 ft | 515 kts | 46° |
| 2026-05-06 16:55 | 36.46367 | -79.55044 | 34975 ft | 515 kts | 46° |
| 2026-05-06 16:56 | 36.50568 | -79.47823 | 34971 ft | 516 kts | 46° |
| 2026-05-06 16:56 | 36.54770 | -79.40595 | 34998 ft | 516 kts | 47° |
| 2026-05-06 16:57 | 36.58966 | -79.33367 | 35042 ft | 515 kts | 47° |
| 2026-05-06 16:57 | 36.63142 | -79.26140 | 35041 ft | 514 kts | 47° |
| 2026-05-06 16:58 | 36.67301 | -79.18913 | 35026 ft | 513 kts | 47° |
| 2026-05-06 16:58 | 36.71458 | -79.11690 | 35014 ft | 513 kts | 47° |
| 2026-05-06 16:59 | 36.75617 | -79.04464 | 35004 ft | 513 kts | 47° |
| 2026-05-06 16:59 | 36.79778 | -78.97227 | 34990 ft | 514 kts | 48° |
| 2026-05-06 17:00 | 36.83229 | -78.91204 | 34975 ft | 514 kts | 47° |
| 2026-05-06 17:00 | 36.87363 | -78.83918 | 34973 ft | 514 kts | 48° |
| 2026-05-06 17:01 | 36.91483 | -78.76609 | 34971 ft | 515 kts | 48° |
| 2026-05-06 17:01 | 36.95604 | -78.69291 | 34998 ft | 515 kts | 49° |
| 2026-05-06 17:02 | 36.99733 | -78.61967 | 34997 ft | 515 kts | 48° |
| 2026-05-06 17:02 | 37.03869 | -78.54638 | 34992 ft | 515 kts | 48° |
| 2026-05-06 17:03 | 37.08013 | -78.47251 | 34981 ft | 515 kts | 48° |
| 2026-05-06 17:03 | 37.12122 | -78.39891 | 34972 ft | 515 kts | 48° |
| 2026-05-06 17:04 | 37.16231 | -78.32524 | 34986 ft | 516 kts | 49° |
| 2026-05-06 17:04 | 37.20635 | -78.25518 | 34964 ft | 505 kts | 36° |
| 2026-05-06 17:04 | 37.23263 | -78.22661 | 34963 ft | 494 kts | 27° |
| 2026-05-06 17:05 | 37.26022 | -78.20097 | 34964 ft | 494 kts | 27° |
| 2026-05-06 17:05 | 37.31539 | -78.14933 | 34951 ft | 495 kts | 28° |
| 2026-05-06 17:06 | 37.37057 | -78.09735 | 34965 ft | 496 kts | 28° |
| 2026-05-06 17:06 | 37.42592 | -78.04515 | 34954 ft | 497 kts | 28° |
| 2026-05-06 17:07 | 37.48135 | -77.99290 | 34951 ft | 498 kts | 28° |
| 2026-05-06 17:07 | 37.53679 | -77.94056 | 34954 ft | 498 kts | 28° |
| 2026-05-06 17:08 | 37.59213 | -77.88817 | 34978 ft | 498 kts | 28° |
| 2026-05-06 17:08 | 37.64762 | -77.83561 | 34948 ft | 499 kts | 28° |
| 2026-05-06 17:09 | 37.70328 | -77.78298 | 34947 ft | 500 kts | 28° |
| 2026-05-06 17:09 | 37.75901 | -77.73028 | 34944 ft | 501 kts | 28° |
| 2026-05-06 17:10 | 37.81487 | -77.67733 | 34951 ft | 502 kts | 28° |
| 2026-05-06 17:10 | 37.87063 | -77.62411 | 34955 ft | 502 kts | 28° |
| 2026-05-06 17:11 | 37.92621 | -77.57050 | 34958 ft | 502 kts | 27° |
| 2026-05-06 17:11 | 37.98171 | -77.51696 | 34954 ft | 501 kts | 27° |
| 2026-05-06 17:12 | 38.03722 | -77.46336 | 34924 ft | 502 kts | 27° |
| 2026-05-06 17:12 | 38.09312 | -77.41017 | 34905 ft | 501 kts | 25° |
| 2026-05-06 17:13 | 38.15061 | -77.36087 | 34906 ft | 497 kts | 22° |
| 2026-05-06 17:13 | 38.20891 | -77.31347 | 34935 ft | 498 kts | 22° |
| 2026-05-06 17:14 | 38.26701 | -77.26514 | 34915 ft | 500 kts | 22° |
| 2026-05-06 17:14 | 38.32497 | -77.21568 | 34903 ft | 502 kts | 23° |
| 2026-05-06 17:15 | 38.38257 | -77.16486 | 34921 ft | 509 kts | 29° |
| 2026-05-06 17:15 | 38.43393 | -77.10108 | 34938 ft | 519 kts | 36° |
| 2026-05-06 17:16 | 38.48446 | -77.03517 | 34920 ft | 520 kts | 36° |
| 2026-05-06 17:16 | 38.53503 | -76.96916 | 34908 ft | 520 kts | 36° |
| 2026-05-06 17:17 | 38.58561 | -76.90300 | 34902 ft | 520 kts | 36° |
| 2026-05-06 17:17 | 38.63615 | -76.83672 | 34913 ft | 521 kts | 36° |
| 2026-05-06 17:18 | 38.68498 | -76.76760 | 34880 ft | 534 kts | 47° |
| 2026-05-06 17:18 | 38.70436 | -76.72658 | 34887 ft | 544 kts | 58° |
| 2026-05-06 17:18 | 38.71875 | -76.68143 | 34884 ft | 552 kts | 69° |
| 2026-05-06 17:19 | 38.73878 | -76.58612 | 34897 ft | 555 kts | 71° |
| 2026-05-06 17:19 | 38.75877 | -76.49056 | 34908 ft | 556 kts | 71° |
| 2026-05-06 17:20 | 38.77866 | -76.39503 | 34934 ft | 555 kts | 71° |
| 2026-05-06 17:20 | 38.79838 | -76.29938 | 34923 ft | 555 kts | 71° |
| 2026-05-06 17:20 | 38.80825 | -76.25152 | 34810 ft | 557 kts | 71° |
| 2026-05-06 17:21 | 38.81813 | -76.20349 | 34566 ft | 557 kts | 71° |
| 2026-05-06 17:21 | 38.82798 | -76.15541 | 34336 ft | 558 kts | 71° |
| 2026-05-06 17:21 | 38.83785 | -76.10729 | 33893 ft | 559 kts | 71° |
| 2026-05-06 17:21 | 38.84784 | -76.05848 | 32542 ft | 572 kts | 71° |
| 2026-05-06 17:22 | 38.85780 | -76.00944 | 32048 ft | 560 kts | 72° |
| 2026-05-06 17:22 | 38.86733 | -75.96189 | 31737 ft | 543 kts | 72° |
| 2026-05-06 17:22 | 38.87760 | -75.91584 | 31141 ft | 529 kts | 64° |
| 2026-05-06 17:22 | 38.89234 | -75.87348 | 30620 ft | 511 kts | 54° |
| 2026-05-06 17:23 | 38.91149 | -75.83527 | 30084 ft | 491 kts | 44° |
| 2026-05-06 17:23 | 38.93335 | -75.80292 | 29529 ft | 471 kts | 35° |
| 2026-05-06 17:23 | 38.95741 | -75.77586 | 29064 ft | 450 kts | 26° |
| 2026-05-06 17:23 | 38.98204 | -75.75268 | 28596 ft | 441 kts | 26° |
| 2026-05-06 17:24 | 39.00696 | -75.72920 | 28141 ft | 436 kts | 26° |
| 2026-05-06 17:24 | 39.03124 | -75.70720 | 27698 ft | 426 kts | 21° |
| 2026-05-06 17:24 | 39.05705 | -75.69004 | 27264 ft | 410 kts | 11° |
| 2026-05-06 17:24 | 39.08389 | -75.67852 | 26828 ft | 394 kts | 2° |
| 2026-05-06 17:25 | 39.11037 | -75.67252 | 26415 ft | 380 kts | 353° |
| 2026-05-06 17:25 | 39.13658 | -75.66971 | 26017 ft | 377 kts | 353° |
| 2026-05-06 17:25 | 39.16277 | -75.66693 | 25633 ft | 378 kts | 353° |
| 2026-05-06 17:25 | 39.18862 | -75.66414 | 25237 ft | 378 kts | 353° |
| 2026-05-06 17:26 | 39.21515 | -75.66122 | 24859 ft | 377 kts | 353° |
| 2026-05-06 17:26 | 39.24120 | -75.65835 | 24476 ft | 376 kts | 353° |
| 2026-05-06 17:26 | 39.26735 | -75.65366 | 24076 ft | 385 kts | 3° |
| 2026-05-06 17:26 | 39.29313 | -75.64264 | 23641 ft | 397 kts | 15° |
| 2026-05-06 17:27 | 39.31751 | -75.62495 | 23155 ft | 407 kts | 26° |
| 2026-05-06 17:27 | 39.34089 | -75.60435 | 22701 ft | 405 kts | 26° |
| 2026-05-06 17:27 | 39.36403 | -75.58387 | 22275 ft | 405 kts | 29° |
| 2026-05-06 17:27 | 39.38553 | -75.55986 | 21827 ft | 411 kts | 40° |
| 2026-05-06 17:28 | 39.40373 | -75.53122 | 21403 ft | 414 kts | 52° |
| 2026-05-06 17:28 | 39.41916 | -75.49980 | 20968 ft | 413 kts | 54° |
| 2026-05-06 17:28 | 39.43453 | -75.46841 | 20532 ft | 412 kts | 54° |
| 2026-05-06 17:28 | 39.44987 | -75.43725 | 20094 ft | 410 kts | 54° |
| 2026-05-06 17:29 | 39.46516 | -75.40613 | 19647 ft | 409 kts | 54° |
| 2026-05-06 17:29 | 39.48037 | -75.37505 | 19211 ft | 408 kts | 54° |
| 2026-05-06 17:29 | 39.49552 | -75.34412 | 18786 ft | 407 kts | 54° |
| 2026-05-06 17:29 | 39.51148 | -75.31408 | 18331 ft | 401 kts | 42° |
| 2026-05-06 17:30 | 39.53170 | -75.29044 | 18151 ft | 385 kts | 34° |
| 2026-05-06 17:30 | 39.55113 | -75.26665 | 18040 ft | 384 kts | 38° |
| 2026-05-06 17:30 | 39.57061 | -75.24313 | 17831 ft | 382 kts | 37° |
| 2026-05-06 17:30 | 39.59018 | -75.22000 | 17650 ft | 380 kts | 37° |
| 2026-05-06 17:31 | 39.60968 | -75.19690 | 17474 ft | 379 kts | 37° |
| 2026-05-06 17:31 | 39.63041 | -75.17509 | 17295 ft | 386 kts | 23° |
| 2026-05-06 17:31 | 39.65490 | -75.16264 | 17125 ft | 374 kts | 2° |
| 2026-05-06 17:31 | 39.68014 | -75.16196 | 16946 ft | 355 kts | 340° |
| 2026-05-06 17:32 | 39.70311 | -75.17133 | 16746 ft | 343 kts | 329° |
| 2026-05-06 17:32 | 39.72373 | -75.18559 | 16584 ft | 332 kts | 318° |
| 2026-05-06 17:32 | 39.74311 | -75.20206 | 16406 ft | 332 kts | 318° |
| 2026-05-06 17:32 | 39.76242 | -75.21854 | 16227 ft | 332 kts | 318° |
| 2026-05-06 17:33 | 39.78169 | -75.23506 | 16056 ft | 332 kts | 318° |
| 2026-05-06 17:33 | 39.80093 | -75.25161 | 15892 ft | 331 kts | 318° |
| 2026-05-06 17:33 | 39.82012 | -75.26814 | 15712 ft | 330 kts | 318° |
| 2026-05-06 17:33 | 39.83925 | -75.28465 | 15541 ft | 330 kts | 318° |
| 2026-05-06 17:34 | 39.85836 | -75.30118 | 15371 ft | 330 kts | 318° |
| 2026-05-06 17:34 | 39.87745 | -75.31771 | 15198 ft | 329 kts | 318° |
| 2026-05-06 17:34 | 39.89651 | -75.33425 | 15033 ft | 329 kts | 318° |
| 2026-05-06 17:34 | 39.91552 | -75.35077 | 14874 ft | 329 kts | 318° |
| 2026-05-06 17:35 | 39.93466 | -75.36749 | 14199 ft | 334 kts | 318° |
| 2026-05-06 17:35 | 39.95389 | -75.38447 | 13380 ft | 333 kts | 318° |
| 2026-05-06 17:35 | 39.97300 | -75.40144 | 12513 ft | 330 kts | 318° |
| 2026-05-06 17:36 | 40.01044 | -75.43436 | 10855 ft | 319 kts | 318° |
| 2026-05-06 17:36 | 40.02865 | -75.45030 | 10255 ft | 308 kts | 318° |
| 2026-05-06 17:36 | 40.04582 | -75.46508 | 10080 ft | 284 kts | 318° |
| 2026-05-06 17:36 | 40.06216 | -75.47889 | 9963 ft | 278 kts | 318° |
| 2026-05-06 17:37 | 40.07838 | -75.49257 | 9653 ft | 276 kts | 318° |
| 2026-05-06 17:37 | 40.08926 | -75.50172 | 9397 ft | 275 kts | 318° |
| 2026-05-06 17:37 | 40.11116 | -75.51845 | 8910 ft | 282 kts | 333° |
| 2026-05-06 17:37 | 40.13096 | -75.52153 | 8550 ft | 296 kts | 1° |
| 2026-05-06 17:38 | 40.14458 | -75.51690 | 8303 ft | 302 kts | 20° |
| 2026-05-06 17:38 | 40.16122 | -75.50116 | 7980 ft | 292 kts | 49° |
| 2026-05-06 17:38 | 40.17047 | -75.47855 | 7632 ft | 276 kts | 79° |
| 2026-05-06 17:38 | 40.17068 | -75.45489 | 7316 ft | 247 kts | 111° |
| 2026-05-06 17:39 | 40.16426 | -75.43537 | 7031 ft | 225 kts | 126° |
| 2026-05-06 17:39 | 40.15695 | -75.41764 | 6688 ft | 219 kts | 129° |
| 2026-05-06 17:39 | 40.14997 | -75.40016 | 6351 ft | 215 kts | 128° |
| 2026-05-06 17:39 | 40.14290 | -75.38312 | 5863 ft | 208 kts | 135° |
| 2026-05-06 17:40 | 40.13417 | -75.36852 | 5360 ft | 201 kts | 143° |
| 2026-05-06 17:40 | 40.12328 | -75.35899 | 4869 ft | 183 kts | 166° |
| 2026-05-06 17:40 | 40.11196 | -75.35089 | 4356 ft | 187 kts | 161° |
| 2026-05-06 17:40 | 40.10062 | -75.34320 | 3850 ft | 180 kts | 167° |
| 2026-05-06 17:41 | 40.08931 | -75.33690 | 3365 ft | 174 kts | 169° |
| 2026-05-06 17:41 | 40.07823 | -75.33118 | 3027 ft | 168 kts | 171° |
| 2026-05-06 17:41 | 40.06718 | -75.32562 | 3011 ft | 172 kts | 171° |
| 2026-05-06 17:41 | 40.05588 | -75.31996 | 3009 ft | 173 kts | 170° |
| 2026-05-06 17:42 | 40.04456 | -75.31429 | 3014 ft | 171 kts | 169° |
| 2026-05-06 17:42 | 40.03420 | -75.30904 | 2965 ft | 152 kts | 171° |
| 2026-05-06 17:42 | 40.02464 | -75.30426 | 2842 ft | 143 kts | 171° |
| 2026-05-06 17:42 | 40.01559 | -75.29976 | 2688 ft | 138 kts | 171° |
| 2026-05-06 17:43 | 40.00653 | -75.29526 | 2509 ft | 137 kts | 170° |
| 2026-05-06 17:43 | 39.99751 | -75.29079 | 2333 ft | 140 kts | 169° |
| 2026-05-06 17:43 | 39.98840 | -75.28625 | 2152 ft | 139 kts | 168° |
| 2026-05-06 17:43 | 39.97933 | -75.28173 | 1958 ft | 140 kts | 167° |
| 2026-05-06 17:44 | 39.97031 | -75.27723 | 1777 ft | 137 kts | 168° |
| 2026-05-06 17:44 | 39.96159 | -75.27287 | 1585 ft | 131 kts | 169° |
| 2026-05-06 17:44 | 39.95314 | -75.26866 | 1409 ft | 129 kts | 169° |
| 2026-05-06 17:44 | 39.94489 | -75.26456 | 1250 ft | 125 kts | 169° |
| 2026-05-06 17:45 | 39.93670 | -75.26050 | 1067 ft | 128 kts | 168° |
| 2026-05-06 17:45 | 39.92834 | -75.25634 | 901 ft | 130 kts | 167° |
| 2026-05-06 17:45 | 39.92003 | -75.25220 | 732 ft | 127 kts | 166° |
| 2026-05-06 17:45 | 39.91129 | -75.24786 | 562 ft | 134 kts | 164° |
| 2026-05-06 17:46 | 39.90269 | -75.24357 | 378 ft | 131 kts | 163° |
| 2026-05-06 17:46 | 39.89437 | -75.23942 | 207 ft | 127 kts | 166° |
| 2026-05-06 17:46 | 39.88589 | -75.23506 | 36 ft | 128 kts | 166° |
| 2026-05-06 17:46 | 39.87869 | -75.23171 | 23 ft | 74 kts | 158° |
| 2026-05-06 17:47 | 39.87638 | -75.23053 | 22 ft | 18 kts | 159° |
| 2026-05-06 17:47 | 39.87510 | -75.23017 | 17 ft | 11 kts | 204° |
| 2026-05-06 17:47 | 39.87476 | -75.23089 | 16 ft | 0 kts | 256° |
| 2026-05-06 17:49 | 39.87476 | -75.23090 | 16 ft | 1 kts | 256° |
| 2026-05-06 17:49 | 39.87465 | -75.23149 | 16 ft | 11 kts | 256° |
| 2026-05-06 17:49 | 39.87449 | -75.23232 | 17 ft | 6 kts | 256° |
| 2026-05-06 17:50 | 39.87436 | -75.23295 | 17 ft | 13 kts | 255° |
| 2026-05-06 17:50 | 39.87412 | -75.23415 | 16 ft | 12 kts | 255° |
| 2026-05-06 17:50 | 39.87394 | -75.23502 | 17 ft | 7 kts | 255° |
| 2026-05-06 17:50 | 39.87382 | -75.23561 | 17 ft | 10 kts | 255° |
| 2026-05-06 17:51 | 39.87364 | -75.23656 | 18 ft | 10 kts | 256° |
| 2026-05-06 17:51 | 39.87350 | -75.23724 | 18 ft | 6 kts | 255° |
| 2026-05-06 17:51 | 39.87333 | -75.23812 | 19 ft | 17 kts | 256° |
| 2026-05-06 17:51 | 39.87304 | -75.23960 | 22 ft | 13 kts | 256° |
| 2026-05-06 17:52 | 39.87287 | -75.24046 | 24 ft | 7 kts | 255° |
| 2026-05-06 17:52 | 39.87272 | -75.24116 | 25 ft | 9 kts | 255° |
| 2026-05-06 17:52 | 39.87283 | -75.24178 | 24 ft | 6 kts | 311° |
| 2026-05-06 17:52 | 39.87314 | -75.24205 | 22 ft | 9 kts | 329° |
| 2026-05-06 17:53 | 39.87383 | -75.24230 | 21 ft | 6 kts | 353° |
| 2026-05-06 17:53 | 39.87404 | -75.24236 | 21 ft | 1 kts | 336° |
| 2026-05-06 17:53 | 39.87418 | -75.24264 | 21 ft | 6 kts | 297° |
| 2026-05-06 17:53 | 39.87425 | -75.24289 | 21 ft | 2 kts | 288° |
| 2026-05-06 17:54 | 39.87430 | -75.24313 | 24 ft | 1 kts | 286° |
| 2026-05-06 17:54 | 39.87431 | -75.24315 | 24 ft | 0 kts | 286° |
| 2026-05-06 17:54 | 39.87431 | -75.24317 | 24 ft | 0 kts | 286° |